Time;durP1;ratioP1;P1;durP2;ratioP2;P2;SDS_P1;SDS_P2;PMS_P1;PMS_P2;Temp;Humidity;BMP_temperature;BMP_pressure;BME280_temperature;BME280_humidity;BME280_pressure;Samples;Min_cycle;Max_cycle;Signal;HPM_P1;HPM_P2
2022/11/07 00:00:07;;;;;;;7.72;3.67;;;;;;;9.64;97.71;100656.19;4923357;29;20428;-83
2022/11/07 00:02:36;;;;;;;6.97;2.72;;;;;;;9.69;97.48;100648.56;4921250;29;20043;-83
2022/11/07 00:05:02;;;;;;;7.38;3.53;;;;;;;9.75;97.42;100660.00;4930545;29;20051;-83
2022/11/07 00:07:28;;;;;;;10.60;3.92;;;;;;;9.80;97.52;100655.97;4912427;29;20067;-82
2022/11/07 00:09:53;;;;;;;10.85;3.13;;;;;;;9.80;97.06;100649.69;4910271;29;20169;-83
2022/11/07 00:12:18;;;;;;;7.10;3.10;;;;;;;9.79;96.96;100661.50;4925805;29;20051;-83
2022/11/07 00:14:44;;;;;;;8.95;3.40;;;;;;;9.78;96.35;100655.19;4926655;29;20138;-83
2022/11/07 00:17:09;;;;;;;5.50;3.15;;;;;;;9.76;96.83;100668.03;4893891;29;20035;-83
2022/11/07 00:19:34;;;;;;;8.38;2.83;;;;;;;9.71;96.38;100662.06;4894137;29;20479;-83
2022/11/07 00:22:00;;;;;;;9.65;3.35;;;;;;;9.65;96.98;100652.53;4898658;29;20047;-83
2022/11/07 00:24:27;;;;;;;8.55;3.08;;;;;;;9.61;96.96;100669.16;4928400;29;20131;-83
2022/11/07 00:26:52;;;;;;;10.10;3.25;;;;;;;9.61;97.53;100672.72;4912789;29;20202;-83
2022/11/07 00:29:19;;;;;;;5.55;3.20;;;;;;;9.62;97.12;100673.59;4925488;29;20071;-83
2022/11/07 00:31:46;;;;;;;5.95;2.88;;;;;;;9.59;97.27;100669.22;4914622;29;20043;-83
2022/11/07 00:34:12;;;;;;;6.68;3.83;;;;;;;9.53;97.16;100658.81;4918115;29;20106;-82
2022/11/07 00:36:37;;;;;;;8.45;3.22;;;;;;;9.55;97.69;100664.13;4912513;29;20503;-83
2022/11/07 00:39:04;;;;;;;11.18;3.30;;;;;;;9.54;97.62;100679.56;4930384;29;20036;-83
2022/11/07 00:41:29;;;;;;;6.75;3.15;;;;;;;9.47;97.95;100667.41;4930590;29;20043;-82
2022/11/07 00:43:55;;;;;;;10.88;2.90;;;;;;;9.45;97.44;100672.06;4921089;29;20464;-83
2022/11/07 00:46:21;;;;;;;9.18;3.35;;;;;;;9.44;97.96;100681.19;4914202;29;20045;-83
2022/11/07 00:48:46;;;;;;;6.55;2.80;;;;;;;9.37;97.87;100680.75;4913954;29;20043;-83
2022/11/07 00:51:18;;;;;;;6.55;2.70;;;;;;;9.39;98.16;100681.50;4913537;29;20091;-83
2022/11/07 00:53:44;;;;;;;8.30;3.20;;;;;;;9.37;98.00;100675.34;4920459;29;20039;-83
2022/11/07 00:56:12;;;;;;;6.88;3.03;;;;;;;9.39;98.37;100683.38;4933165;29;20175;-83
2022/11/07 00:58:38;;;;;;;7.72;4.00;;;;;;;9.37;98.56;100679.88;4916826;29;20051;-82
2022/11/07 01:01:15;;;;;;;5.60;2.63;;;;;;;9.35;98.00;100681.84;4932205;29;20075;-83
2022/11/07 01:06:30;;;;;;;6.40;2.75;;;;;;;9.32;98.45;100677.47;4927978;29;20484;-83
2022/11/07 01:08:56;;;;;;;9.30;3.20;;;;;;;9.33;98.38;100689.22;4921707;29;20433;-83
2022/11/07 01:11:23;;;;;;;8.77;3.08;;;;;;;9.33;98.94;100681.09;4927622;29;20048;-83
2022/11/07 01:13:49;;;;;;;8.27;2.60;;;;;;;9.33;98.54;100692.81;4931557;29;20054;-83
2022/11/07 01:16:14;;;;;;;7.82;2.65;;;;;;;9.33;99.00;100694.66;4932865;29;20023;-83
2022/11/07 01:18:41;;;;;;;7.85;2.60;;;;;;;9.33;98.82;100697.38;4921139;29;20036;-83
2022/11/07 01:21:08;;;;;;;9.80;3.00;;;;;;;9.27;98.83;100695.94;4912799;29;20099;-83
2022/11/07 01:23:34;;;;;;;8.07;3.88;;;;;;;9.25;99.03;100706.03;4927318;29;20036;-83
2022/11/07 01:26:08;;;;;;;5.38;2.83;;;;;;;9.27;99.26;100706.78;4920640;29;20064;-81
2022/11/07 01:28:34;;;;;;;6.15;2.95;;;;;;;9.25;99.50;100719.63;4913305;29;20468;-83
2022/11/07 01:31:08;;;;;;;7.47;2.92;;;;;;;9.25;99.38;100724.19;4913150;29;20158;-82
2022/11/07 01:33:35;;;;;;;6.18;2.60;;;;;;;9.24;99.84;100723.31;4915091;29;20866;-83
2022/11/07 01:36:07;;;;;;;10.05;3.20;;;;;;;9.19;100.00;100720.91;4931404;29;20027;-82
2022/11/07 01:38:41;;;;;;;8.32;3.28;;;;;;;9.22;99.73;100718.94;4917723;29;20507;-83
2022/11/07 01:41:21;;;;;;;8.57;3.08;;;;;;;9.19;99.95;100712.78;4931014;29;20063;-83
2022/11/07 01:43:52;;;;;;;5.55;3.10;;;;;;;9.21;99.95;100720.78;4928321;29;20337;-83
2022/11/07 01:46:18;;;;;;;5.63;2.83;;;;;;;9.19;99.84;100717.34;4912031;29;20540;-83
2022/11/07 01:48:50;;;;;;;5.82;3.00;;;;;;;9.19;100.00;100709.19;4920712;29;20824;-83
2022/11/07 01:51:17;;;;;;;12.80;4.68;;;;;;;9.20;100.00;100717.22;4930498;29;20040;-83
2022/11/07 01:53:43;;;;;;;8.68;3.15;;;;;;;9.25;100.00;100721.47;4918798;29;20486;-83
2022/11/07 01:56:15;;;;;;;8.07;3.67;;;;;;;9.25;100.00;100716.03;4931936;29;20036;-83
2022/11/07 01:58:41;;;;;;;9.45;4.15;;;;;;;9.31;100.00;100718.31;4941720;29;20048;-83
2022/11/07 02:01:07;;;;;;;5.13;2.95;;;;;;;9.31;100.00;100708.31;4912640;29;20039;-83
2022/11/07 02:03:33;;;;;;;11.02;3.22;;;;;;;9.37;100.00;100726.91;4913029;29;20031;-83
2022/11/07 02:06:04;;;;;;;9.25;3.50;;;;;;;9.46;100.00;100733.53;4930797;29;20043;-83
2022/11/07 02:08:32;;;;;;;11.82;2.72;;;;;;;9.55;100.00;100740.16;4926913;29;20575;-83
2022/11/07 02:10:59;;;;;;;8.38;3.28;;;;;;;9.57;100.00;100732.81;4923903;29;20123;-83
2022/11/07 02:13:27;;;;;;;7.30;3.10;;;;;;;9.60;100.00;100719.84;4928166;29;20063;-83
2022/11/07 02:15:52;;;;;;;8.40;2.80;;;;;;;9.66;100.00;100727.59;4896474;29;20024;-83
2022/11/07 02:18:20;;;;;;;10.13;3.20;;;;;;;9.70;100.00;100730.97;4911996;29;20503;-83
2022/11/07 02:20:46;;;;;;;12.63;2.63;;;;;;;9.74;99.98;100728.88;4911722;29;20088;-83
2022/11/07 02:23:26;;;;;;;5.35;2.85;;;;;;;9.71;99.90;100728.13;4914153;29;20390;-83
2022/11/07 02:25:52;;;;;;;9.52;2.97;;;;;;;9.74;99.55;100735.19;4922792;29;20040;-83
2022/11/07 02:28:20;;;;;;;7.43;3.08;;;;;;;9.71;99.80;100728.13;4928415;29;20403;-83
2022/11/07 02:30:45;;;;;;;9.48;3.30;;;;;;;9.71;99.70;100729.97;4912801;29;20082;-83
2022/11/07 02:33:19;;;;;;;9.40;2.88;;;;;;;9.65;99.44;100727.69;4895312;29;20589;-83
2022/11/07 02:35:47;;;;;;;7.72;3.28;;;;;;;9.66;99.64;100738.44;4910997;29;20040;-83
2022/11/07 02:38:19;;;;;;;9.25;3.38;;;;;;;9.62;99.70;100739.63;4925020;29;20046;-83
2022/11/07 02:40:48;;;;;;;7.57;2.92;;;;;;;9.59;100.00;100734.41;4916359;29;20047;-83
2022/11/07 02:43:17;;;;;;;9.35;3.53;;;;;;;9.61;100.00;100723.47;4912698;29;20044;-83
2022/11/07 02:45:45;;;;;;;11.98;3.28;;;;;;;9.60;100.00;100714.41;4910015;29;20036;-83
2022/11/07 02:48:10;;;;;;;10.40;3.13;;;;;;;9.64;100.00;100720.50;4912550;29;20068;-83
2022/11/07 02:50:36;;;;;;;10.63;3.08;;;;;;;9.65;99.85;100716.81;4926833;29;20142;-83
2022/11/07 02:53:01;;;;;;;12.77;3.17;;;;;;;9.62;100.00;100719.75;4926206;29;20051;-83
2022/11/07 02:55:26;;;;;;;7.38;2.85;;;;;;;9.61;100.00;100724.34;4943411;29;20042;-83
2022/11/07 02:57:52;;;;;;;7.75;3.15;;;;;;;9.59;99.91;100712.69;4930194;29;20039;-83
2022/11/07 03:00:17;;;;;;;12.52;3.22;;;;;;;9.54;99.96;100711.28;4944985;29;20527;-83
2022/11/07 03:02:45;;;;;;;12.57;3.25;;;;;;;9.51;100.00;100714.19;4904173;29;20045;-83
2022/11/07 03:05:13;;;;;;;9.80;2.55;;;;;;;9.51;100.00;100708.78;4910674;29;20036;-83
2022/11/07 03:07:40;;;;;;;4.60;2.70;;;;;;;9.56;100.00;100710.22;4926901;29;20123;-83
2022/11/07 03:10:06;;;;;;;10.20;3.05;;;;;;;9.54;100.00;100712.16;4911837;29;20040;-83
2022/11/07 03:12:31;;;;;;;9.23;2.97;;;;;;;9.51;100.00;100708.78;4895734;29;20066;-83
2022/11/07 03:14:57;;;;;;;12.40;3.08;;;;;;;9.45;100.00;100710.94;4922165;29;20032;-83
2022/11/07 03:17:22;;;;;;;12.18;3.30;;;;;;;9.44;100.00;100714.63;4928591;29;20126;-83
2022/11/07 03:19:47;;;;;;;8.18;3.63;;;;;;;9.42;100.00;100713.88;4929250;29;20083;-83
2022/11/07 03:22:13;;;;;;;11.30;3.85;;;;;;;9.44;100.00;100720.06;4928759;29;20038;-83
2022/11/07 03:24:38;;;;;;;7.05;2.72;;;;;;;9.43;100.00;100723.78;4924925;29;20052;-83
2022/11/07 03:27:03;;;;;;;8.70;3.03;;;;;;;9.45;100.00;100716.38;4911434;29;20035;-83
2022/11/07 03:29:29;;;;;;;18.33;4.40;;;;;;;9.42;100.00;100722.03;4937722;29;20035;-83
2022/11/07 03:31:54;;;;;;;11.57;3.15;;;;;;;9.39;100.00;100716.81;4913371;29;20052;-83
2022/11/07 03:34:19;;;;;;;10.63;3.03;;;;;;;9.38;100.00;100714.22;4945634;29;20406;-83
2022/11/07 03:36:45;;;;;;;12.82;2.83;;;;;;;9.36;100.00;100710.72;4924074;29;20044;-83
2022/11/07 03:39:10;;;;;;;10.60;3.00;;;;;;;9.39;100.00;100713.22;4895417;29;20032;-83
2022/11/07 03:41:36;;;;;;;11.00;4.00;;;;;;;9.41;100.00;100723.00;4926736;28;20032;-83
2022/11/07 03:44:01;;;;;;;10.52;2.92;;;;;;;9.39;100.00;100724.97;4899049;29;20047;-83
2022/11/07 03:46:27;;;;;;;11.25;3.05;;;;;;;9.45;100.00;100724.50;4899666;29;20032;-83
2022/11/07 03:48:52;;;;;;;12.77;3.08;;;;;;;9.50;100.00;100726.03;4934107;29;20036;-83
2022/11/07 03:51:17;;;;;;;8.13;3.25;;;;;;;9.57;100.00;100733.66;4943130;29;20040;-83
2022/11/07 03:53:43;;;;;;;12.65;3.33;;;;;;;9.62;100.00;100733.34;4926437;29;20032;-84
2022/11/07 03:56:11;;;;;;;10.15;3.10;;;;;;;9.63;100.00;100729.66;4928794;29;20040;-83
2022/11/07 03:58:37;;;;;;;14.45;2.70;;;;;;;9.66;100.00;100718.56;4925851;29;20028;-83
2022/11/07 04:01:03;;;;;;;7.80;3.10;;;;;;;9.73;100.00;100728.00;4910615;29;20131;-83
2022/11/07 04:03:29;;;;;;;12.95;3.28;;;;;;;9.79;100.00;100721.25;4910173;29;20036;-84
2022/11/07 04:05:55;;;;;;;7.00;2.72;;;;;;;9.81;100.00;100724.75;4915954;29;20164;-83
2022/11/07 04:08:20;;;;;;;12.93;3.20;;;;;;;9.83;100.00;100723.66;4930260;29;20075;-83
2022/11/07 04:10:46;;;;;;;13.75;2.80;;;;;;;9.82;100.00;100718.34;4914078;29;20118;-83
2022/11/07 04:18:39;;;;;;;17.30;3.17;;;;;;;9.85;100.00;100723.56;4900527;29;20064;-83
2022/11/07 04:21:05;;;;;;;10.82;2.53;;;;;;;9.86;100.00;100720.72;4915104;29;20386;-83
2022/11/07 04:23:30;;;;;;;13.57;2.90;;;;;;;9.86;99.90;100723.44;4929685;29;20039;-82
2022/11/07 04:28:40;;;;;;;13.98;3.72;;;;;;;9.80;99.98;100723.91;4914404;29;20051;-83
2022/11/07 04:31:05;;;;;;;12.25;3.25;;;;;;;9.80;99.87;100733.91;4915378;29;20440;-83
2022/11/07 04:33:31;;;;;;;9.90;2.45;;;;;;;9.75;99.74;100734.22;4913784;29;20381;-83
2022/11/07 04:35:56;;;;;;;14.85;2.92;;;;;;;9.73;99.96;100736.16;4929145;29;20115;-83
2022/11/07 04:38:21;;;;;;;22.42;2.90;;;;;;;9.69;100.00;100730.06;4930270;29;20043;-83
2022/11/07 04:40:55;;;;;;;14.30;3.13;;;;;;;9.66;99.84;100726.72;4915099;29;20044;-83
2022/11/07 04:43:25;;;;;;;9.50;2.88;;;;;;;9.62;99.95;100742.34;4898846;29;20650;-83
2022/11/07 04:45:51;;;;;;;17.25;4.18;;;;;;;9.58;99.99;100740.84;4927480;29;20435;-83
2022/11/07 04:48:16;;;;;;;12.07;2.78;;;;;;;9.61;100.00;100745.19;4931816;29;20034;-84
2022/11/07 04:50:43;;;;;;;14.52;2.67;;;;;;;9.66;100.00;100745.75;4933465;29;20144;-83
2022/11/07 04:53:16;;;;;;;10.50;2.28;;;;;;;9.68;100.00;100738.34;4911118;29;20036;-84
2022/11/07 04:55:42;;;;;;;9.13;2.88;;;;;;;9.69;100.00;100734.63;4921776;29;20436;-83
2022/11/07 04:58:08;;;;;;;14.30;2.70;;;;;;;9.75;100.00;100736.06;4932052;29;20040;-83
2022/11/07 05:00:34;;;;;;;10.85;2.50;;;;;;;9.79;100.00;100740.28;4932417;29;20130;-82
2022/11/07 05:02:59;;;;;;;15.30;2.38;;;;;;;9.81;100.00;100739.22;4923766;29;20133;-82
2022/11/07 05:05:24;;;;;;;9.27;2.42;;;;;;;9.85;100.00;100739.88;4914077;29;20063;-83
2022/11/07 05:07:50;;;;;;;10.57;2.65;;;;;;;9.88;100.00;100740.50;4907170;29;20122;-84
2022/11/07 05:10:23;;;;;;;13.50;3.13;;;;;;;9.90;99.62;100738.56;4917328;29;20183;-83
2022/11/07 05:12:48;;;;;;;11.90;2.80;;;;;;;9.95;99.84;100746.38;4916510;29;20126;-84
2022/11/07 05:15:14;;;;;;;17.58;2.67;;;;;;;9.92;99.48;100739.31;4927958;29;20136;-83
2022/11/07 05:17:40;;;;;;;10.20;2.65;;;;;;;10.01;99.31;100747.78;4917088;29;20130;-83
2022/11/07 05:20:06;;;;;;;17.15;2.72;;;;;;;10.01;98.93;100751.38;4930015;29;20039;-83
2022/11/07 05:25:16;;;;;;;16.52;4.53;;;;;;;10.01;98.47;100748.66;4914928;29;20033;-83
2022/11/07 05:27:42;;;;;;;9.45;2.22;;;;;;;10.03;98.60;100752.16;4897370;29;20036;-83
2022/11/07 05:30:09;;;;;;;19.52;2.85;;;;;;;10.03;98.43;100751.28;4929318;29;20086;-83
2022/11/07 05:32:37;;;;;;;15.05;2.55;;;;;;;10.02;98.71;100754.94;4931470;29;20456;-83
2022/11/07 05:35:06;;;;;;;13.27;3.47;;;;;;;10.03;98.54;100759.44;4930683;29;20584;-83
2022/11/07 05:37:31;;;;;;;11.98;2.63;;;;;;;10.03;98.81;100752.16;4931552;29;20031;-83
2022/11/07 05:39:56;;;;;;;15.77;3.05;;;;;;;10.06;98.53;100749.19;4927708;29;20031;-83
2022/11/07 05:42:22;;;;;;;11.43;2.70;;;;;;;10.09;98.85;100745.38;4930429;29;20348;-83
2022/11/07 05:44:47;;;;;;;17.05;3.70;;;;;;;10.08;nan;100744.53;4929542;29;20149;-83
2022/11/07 05:47:12;;;;;;;17.92;2.40;;;;;;;10.11;98.23;100748.84;4931101;29;20030;-83
2022/11/07 05:49:38;;;;;;;15.48;3.05;;;;;;;10.11;98.19;100755.16;4929517;29;20043;-83
2022/11/07 05:52:03;;;;;;;9.55;2.05;;;;;;;10.13;98.43;100750.50;4931279;29;20023;-83
2022/11/07 05:54:29;;;;;;;12.85;2.72;;;;;;;10.16;97.99;100757.53;4930014;29;20032;-83
2022/11/07 05:56:56;;;;;;;12.68;2.28;;;;;;;10.15;97.86;100753.09;4929391;29;20039;-83
2022/11/07 05:59:22;;;;;;;13.85;2.97;;;;;;;10.17;97.59;100754.75;4911654;29;20044;-84
2022/11/07 06:01:47;;;;;;;12.13;3.67;;;;;;;10.17;97.58;100760.19;4929618;29;20044;-83
2022/11/07 06:04:13;;;;;;;7.80;2.45;;;;;;;10.14;98.13;100757.66;4931737;29;20050;-83
2022/11/07 06:06:38;;;;;;;12.88;2.63;;;;;;;10.16;97.67;100752.09;4915404;29;20070;-83
2022/11/07 06:09:04;;;;;;;15.88;3.00;;;;;;;10.15;97.71;100750.38;4931871;29;20080;-83
2022/11/07 06:11:31;;;;;;;8.63;2.17;;;;;;;10.20;97.50;100754.50;4928937;29;20032;-83
2022/11/07 06:13:57;;;;;;;9.57;2.28;;;;;;;10.19;97.95;100755.47;4928275;29;20472;-83
2022/11/07 06:16:22;;;;;;;14.57;2.67;;;;;;;10.19;97.91;100760.91;4911517;29;20091;-83
2022/11/07 06:18:47;;;;;;;14.25;2.63;;;;;;;10.27;97.72;100759.53;4928399;29;20447;-83
2022/11/07 06:21:13;;;;;;;15.30;2.63;;;;;;;10.27;97.52;100759.53;4926385;29;20035;-83
2022/11/07 06:23:38;;;;;;;15.73;3.13;;;;;;;10.29;97.78;100754.84;4913549;29;20040;-83
2022/11/07 06:26:04;;;;;;;15.68;2.45;;;;;;;10.29;97.48;100754.84;4930314;29;20480;-83
2022/11/07 06:28:29;;;;;;;12.32;3.03;;;;;;;10.32;97.40;100760.94;4929078;29;20043;-83
2022/11/07 06:30:58;;;;;;;11.70;2.60;;;;;;;10.32;97.54;100760.94;4930345;29;20047;-84
2022/11/07 06:33:24;;;;;;;12.02;2.90;;;;;;;10.34;97.56;100761.69;4929632;29;20050;-83
2022/11/07 06:35:50;;;;;;;10.52;3.05;;;;;;;10.34;97.65;100769.84;4929538;29;20476;-83
2022/11/07 06:38:15;;;;;;;16.00;2.58;;;;;;;10.35;97.34;100758.00;4928697;29;20031;-83
2022/11/07 06:40:42;;;;;;;20.13;2.75;;;;;;;10.37;97.07;100769.63;4929311;29;20448;-83
2022/11/07 06:43:11;;;;;;;14.05;4.78;;;;;;;10.42;97.19;100772.00;4928726;29;20130;-84
2022/11/07 06:45:36;;;;;;;9.75;2.25;;;;;;;10.43;97.00;100769.16;4929557;29;20082;-83
2022/11/07 06:48:02;;;;;;;10.63;2.30;;;;;;;10.43;96.98;100771.88;4930754;29;20047;-83
2022/11/07 06:50:28;;;;;;;14.82;3.50;;;;;;;10.45;96.75;100780.81;4929452;29;20380;-83
2022/11/07 06:52:53;;;;;;;12.07;2.65;;;;;;;10.45;96.74;100783.53;4922746;29;20059;-84
2022/11/07 06:55:20;;;;;;;12.98;3.05;;;;;;;10.49;96.88;100778.72;4912668;29;20052;-84
2022/11/07 06:57:46;;;;;;;10.18;2.88;;;;;;;10.53;96.50;100791.13;4928023;29;20074;-84
2022/11/07 07:00:13;;;;;;;15.77;2.83;;;;;;;10.54;96.84;100781.09;4929266;29;20059;-83
2022/11/07 07:02:38;;;;;;;16.80;3.30;;;;;;;10.54;97.08;100794.72;4928177;29;20071;-83
2022/11/07 07:05:04;;;;;;;8.82;2.20;;;;;;;10.57;96.81;100794.50;4928457;29;20028;-83
2022/11/07 07:07:29;;;;;;;10.57;2.40;;;;;;;10.59;97.19;100782.53;4925752;29;20051;-83
2022/11/07 07:09:54;;;;;;;21.83;3.78;;;;;;;10.60;97.09;100791.56;4923560;29;20491;-84
2022/11/07 07:12:20;;;;;;;10.73;2.30;;;;;;;10.59;96.79;100781.66;4924802;29;20031;-83
2022/11/07 07:14:45;;;;;;;12.13;2.55;;;;;;;10.63;96.74;100802.19;4913262;29;20115;-83
2022/11/07 07:17:11;;;;;;;8.75;2.58;;;;;;;10.63;96.65;100805.81;4929939;29;20036;-83
2022/11/07 07:19:36;;;;;;;13.68;2.53;;;;;;;10.67;96.78;100801.00;4925929;29;20445;-83
2022/11/07 07:22:02;;;;;;;16.92;3.38;;;;;;;10.66;96.55;100813.72;4912799;29;20028;-83
2022/11/07 07:24:27;;;;;;;15.40;2.72;;;;;;;10.65;96.56;100800.25;4920455;29;20036;-84
2022/11/07 07:26:53;;;;;;;18.95;2.70;;;;;;;10.66;97.02;100799.25;4914281;29;20032;-84
2022/11/07 07:29:18;;;;;;;12.65;2.42;;;;;;;10.68;97.01;100816.38;4911030;29;20126;-83
2022/11/07 07:31:45;;;;;;;10.27;2.22;;;;;;;10.76;96.59;100818.50;4926966;29;20043;-83
2022/11/07 07:34:10;;;;;;;9.52;2.38;;;;;;;10.81;96.52;100824.47;4929498;29;20058;-83
2022/11/07 07:36:35;;;;;;;11.73;4.03;;;;;;;10.81;96.07;100819.03;4944268;29;20851;-83
2022/11/07 07:39:01;;;;;;;15.00;2.67;;;;;;;10.80;96.49;100810.00;4938839;29;20416;-83
2022/11/07 07:41:26;;;;;;;10.05;2.75;;;;;;;10.82;96.41;100816.22;4922093;29;20055;-83
2022/11/07 07:43:52;;;;;;;15.70;2.70;;;;;;;10.85;95.86;100823.25;4925458;29;20127;-83
2022/11/07 07:46:21;;;;;;;9.13;2.45;;;;;;;10.86;96.07;100823.13;4927757;29;20055;-83
2022/11/07 07:48:46;;;;;;;16.95;3.75;;;;;;;10.87;96.10;100822.19;4921035;29;20036;-83
2022/11/07 07:51:12;;;;;;;6.93;2.33;;;;;;;10.90;96.25;100823.78;4910775;29;20051;-83
2022/11/07 07:53:37;;;;;;;8.48;2.33;;;;;;;10.93;96.45;100820.84;4928251;29;20150;-83
2022/11/07 07:56:05;;;;;;;14.77;4.07;;;;;;;11.03;96.51;100821.03;4928195;29;20482;-83
2022/11/07 07:58:30;;;;;;;10.20;2.63;;;;;;;11.10;96.69;100836.81;4912607;29;20389;-84
2022/11/07 08:00:59;;;;;;;18.15;3.30;;;;;;;11.18;96.45;100841.66;4909869;29;20043;-84
2022/11/07 08:03:25;;;;;;;18.15;2.50;;;;;;;11.27;95.68;100838.25;4911346;29;20051;-83
2022/11/07 08:05:56;;;;;;;19.45;3.08;;;;;;;11.34;95.95;100827.78;4925676;29;20063;-83
2022/11/07 08:08:23;;;;;;;13.73;4.28;;;;;;;11.45;95.04;100845.03;4918169;29;20043;-83
2022/11/07 08:10:53;;;;;;;13.75;2.60;;;;;;;11.46;95.09;100832.25;4911603;29;20024;-84
2022/11/07 08:13:23;;;;;;;15.75;2.60;;;;;;;11.52;95.07;100839.09;4929047;29;20039;-83
2022/11/07 08:15:50;;;;;;;13.20;2.55;;;;;;;11.54;94.74;100840.72;4910568;29;20098;-84
2022/11/07 08:18:17;;;;;;;10.70;2.42;;;;;;;11.59;94.93;100835.78;4906707;29;20151;-83
2022/11/07 08:20:42;;;;;;;8.45;2.40;;;;;;;11.63;94.70;100850.06;4924856;29;20117;-83
2022/11/07 08:23:09;;;;;;;15.35;2.67;;;;;;;11.63;94.66;100842.75;4911361;29;20504;-83
2022/11/07 08:25:34;;;;;;;9.65;2.17;;;;;;;11.65;94.53;100838.03;4919659;29;20027;-83
2022/11/07 08:28:00;;;;;;;9.48;2.38;;;;;;;11.77;94.39;100844.41;4930700;29;20587;-84
2022/11/07 08:30:27;;;;;;;18.23;3.03;;;;;;;11.86;93.92;100854.63;4913308;29;20027;-83
2022/11/07 08:32:52;;;;;;;14.38;2.42;;;;;;;11.88;93.80;100854.50;4924235;29;20089;-83
2022/11/07 08:35:18;;;;;;;14.98;2.40;;;;;;;11.91;93.59;100855.13;4926153;29;20485;-83
2022/11/07 08:37:43;;;;;;;12.73;2.40;;;;;;;11.94;93.42;100862.22;4925537;29;20063;-83
2022/11/07 08:40:09;;;;;;;15.88;2.67;;;;;;;11.94;93.49;100854.91;4924092;29;20172;-84
2022/11/07 08:42:34;;;;;;;11.18;2.45;;;;;;;11.98;93.23;100867.31;4925590;29;20031;-83
2022/11/07 08:45:00;;;;;;;8.90;2.55;;;;;;;11.98;93.38;100866.41;4911440;29;20496;-83
2022/11/07 08:47:27;;;;;;;7.53;2.20;;;;;;;12.00;93.40;100869.91;4906148;29;20168;-83
2022/11/07 08:49:52;;;;;;;13.27;3.15;;;;;;;12.06;92.88;100872.16;4941210;29;20048;-83
2022/11/07 08:52:18;;;;;;;13.40;2.13;;;;;;;12.10;93.15;100876.38;4932694;29;20039;-83
2022/11/07 08:54:43;;;;;;;10.98;2.22;;;;;;;12.14;92.70;100877.00;4926217;29;20118;-83
2022/11/07 08:57:09;;;;;;;16.52;2.97;;;;;;;12.21;92.65;100894.63;4930502;29;20110;-83
2022/11/07 08:59:34;;;;;;;6.28;2.20;;;;;;;12.23;92.43;100881.75;4915672;29;20029;-83
2022/11/07 09:02:00;;;;;;;12.98;3.20;;;;;;;12.27;92.96;100890.56;4916111;29;20065;-83
2022/11/07 09:04:25;;;;;;;11.27;2.17;;;;;;;12.30;92.88;100896.63;4933115;29;20039;-84
2022/11/07 09:06:50;;;;;;;14.55;2.22;;;;;;;12.29;92.20;100886.72;4926707;29;20106;-83
2022/11/07 09:09:16;;;;;;;8.48;2.17;;;;;;;12.29;91.92;100894.03;4928745;29;20043;-83
2022/11/07 09:11:41;;;;;;;11.68;2.30;;;;;;;12.28;92.21;100890.44;4932157;29;20118;-83
2022/11/07 09:14:07;;;;;;;6.28;3.10;;;;;;;12.27;92.24;100896.88;4929466;29;20036;-83
2022/11/07 09:16:32;;;;;;;12.73;2.40;;;;;;;12.25;92.58;100907.91;4930711;29;20070;-83
2022/11/07 09:18:57;;;;;;;16.08;3.30;;;;;;;12.29;91.66;100910.41;4912153;29;20138;-83
2022/11/07 09:21:23;;;;;;;10.55;2.55;;;;;;;12.28;92.54;100904.06;4915328;29;20115;-83
2022/11/07 09:23:50;;;;;;;13.50;2.90;;;;;;;12.31;92.62;100908.41;4917986;29;20147;-83
2022/11/07 09:26:15;;;;;;;9.55;2.38;;;;;;;12.34;92.78;100906.31;4928325;29;20488;-84
2022/11/07 09:28:40;;;;;;;13.93;3.42;;;;;;;12.39;92.09;100916.84;4932418;29;20055;-83
2022/11/07 09:31:06;;;;;;;16.48;3.08;;;;;;;12.45;92.33;100911.81;4932197;29;20487;-83
2022/11/07 09:33:31;;;;;;;13.85;2.88;;;;;;;12.52;91.88;100918.50;4930882;29;20044;-84
2022/11/07 09:36:04;;;;;;;11.25;2.88;;;;;;;12.58;92.14;100910.81;4932481;29;20471;-83
2022/11/07 09:38:30;;;;;;;;;;;;;;;12.61;92.03;100913.31;4932000;29;20039;-83
2022/11/07 09:41:06;;;;;;;9.27;2.90;;;;;;;12.61;91.33;100919.63;4927469;29;19915;-83
2022/11/07 09:43:32;;;;;;;8.48;2.35;;;;;;;12.62;91.59;100923.22;4944639;29;20566;-83
2022/11/07 09:46:04;;;;;;;10.23;2.30;;;;;;;12.63;90.94;100924.94;4931185;29;20071;-83
2022/11/07 09:48:45;;;;;;;12.30;2.70;;;;;;;12.63;91.25;100917.63;4932472;29;20114;-84
2022/11/07 09:51:18;;;;;;;12.20;2.43;;;;;;;12.68;91.15;100929.06;4915536;29;20066;-84
2022/11/07 09:53:53;;;;;;;13.65;3.05;;;;;;;12.74;90.66;100925.84;4930012;29;20319;-83
2022/11/07 09:56:18;;;;;;;13.07;2.10;;;;;;;12.80;90.59;100923.63;4920710;29;20036;-83
2022/11/07 09:58:50;;;;;;;11.13;2.33;;;;;;;12.79;89.99;100932.81;4897148;29;20388;-84
2022/11/07 10:01:17;;;;;;;9.98;2.60;;;;;;;12.81;90.28;100917.16;4913430;29;20036;-83
2022/11/07 10:03:44;;;;;;;15.43;3.50;;;;;;;12.80;90.38;100921.75;4911449;29;20106;-84
2022/11/07 10:06:25;;;;;;;10.20;2.45;;;;;;;12.84;89.94;100928.69;4929307;29;20048;-83
2022/11/07 10:09:02;;;;;;;9.15;2.53;;;;;;;12.84;89.85;100919.66;4927403;29;20044;-84
2022/11/07 10:11:51;;;;;;;11.68;3.03;;;;;;;12.85;90.81;100927.69;4913119;29;20043;-84
2022/11/07 10:14:29;;;;;;;15.88;3.53;;;;;;;12.82;89.88;100924.34;4908560;29;20028;-84
2022/11/07 10:17:17;;;;;;;10.15;2.63;;;;;;;12.84;90.00;100927.84;4927207;29;20520;-84
2022/11/07 10:20:04;;;;;;;15.18;2.90;;;;;;;12.85;90.03;100943.22;4922698;29;20114;-84
2022/11/07 10:22:49;;;;;;;9.48;2.70;;;;;;;12.88;90.60;100940.25;4922678;29;20072;-84
2022/11/07 10:25:31;;;;;;;11.77;2.55;;;;;;;12.89;90.02;100931.06;4924629;29;20044;-83
2022/11/07 10:28:07;;;;;;;11.00;2.42;;;;;;;12.97;90.11;100934.06;4930478;29;20039;-83
2022/11/07 10:30:33;;;;;;;9.75;2.88;;;;;;;12.98;89.57;100943.97;4919089;29;20040;-84
2022/11/07 10:33:35;;;;;;;11.38;2.63;;;;;;;13.07;89.30;100943.22;4929449;29;20400;-83
2022/11/07 10:36:08;;;;;;;10.88;2.15;;;;;;;13.11;88.74;100946.59;4900862;29;20134;-83
2022/11/07 10:38:34;;;;;;;10.07;3.17;;;;;;;13.20;88.71;100948.56;4927792;29;20087;-83
2022/11/07 10:41:00;;;;;;;9.32;2.33;;;;;;;13.30;89.22;100949.56;4927235;29;20027;-83
2022/11/07 10:43:33;;;;;;;20.20;2.78;;;;;;;13.38;88.08;100957.13;4929833;29;20039;-84
2022/11/07 10:46:02;;;;;;;13.85;2.60;;;;;;;13.41;87.96;100948.69;4930870;29;20043;-84
2022/11/07 10:48:28;;;;;;;11.98;2.80;;;;;;;13.39;86.77;100950.69;4926206;29;20040;-83
2022/11/07 10:50:55;;;;;;;11.13;2.67;;;;;;;13.43;86.50;100950.31;4911552;29;20044;-83
2022/11/07 10:53:22;;;;;;;13.70;3.10;;;;;;;13.49;86.13;100955.25;4911400;29;20047;-83
2022/11/07 10:55:50;;;;;;;15.88;3.33;;;;;;;13.58;86.21;100970.03;4924290;29;20038;-83
2022/11/07 10:58:26;;;;;;;7.97;2.00;;;;;;;13.63;85.42;100953.25;4911181;29;20337;-83
2022/11/07 11:01:07;;;;;;;17.45;2.97;;;;;;;13.70;85.63;100968.13;4911234;29;20082;-83
2022/11/07 11:03:39;;;;;;;12.85;2.25;;;;;;;13.74;85.39;100967.72;4913004;29;20443;-83
2022/11/07 11:06:19;;;;;;;;;;;;;;;13.81;86.56;100959.03;4940504;29;20040;-83
2022/11/07 11:08:46;;;;;;;14.23;2.85;;;;;;;13.81;84.38;100957.16;4930091;29;19933;-83
2022/11/07 11:11:23;;;;;;;10.07;2.47;;;;;;;13.85;84.51;100952.28;4928755;29;20049;-83
2022/11/07 11:13:59;;;;;;;8.63;1.95;;;;;;;13.90;84.79;100941.84;4927670;29;20436;-83
2022/11/07 11:16:28;;;;;;;12.68;2.20;;;;;;;13.97;83.68;100952.13;4926527;29;20035;-83
2022/11/07 11:18:59;;;;;;;9.45;2.83;;;;;;;14.01;83.20;100944.53;4919571;29;20054;-82
2022/11/07 11:21:25;;;;;;;12.60;1.85;;;;;;;14.02;83.16;100935.31;4928866;29;20055;-83
2022/11/07 11:23:53;;;;;;;10.60;2.42;;;;;;;14.06;83.33;100945.00;4910288;29;20130;-83
2022/11/07 11:26:30;;;;;;;16.48;2.65;;;;;;;14.11;83.68;100942.72;4913004;29;20116;-83
2022/11/07 11:29:01;;;;;;;8.57;2.97;;;;;;;14.16;82.09;100945.06;4926099;29;20463;-84
2022/11/07 11:31:36;;;;;;;9.77;2.22;;;;;;;14.21;83.96;100954.63;4894406;29;20040;-83
2022/11/07 11:34:23;;;;;;;16.35;2.67;;;;;;;14.29;83.00;100932.06;4911819;29;20515;-83
2022/11/07 11:37:07;;;;;;;9.32;2.17;;;;;;;14.37;82.22;100935.03;4914273;29;20344;-84